sensor_id;sensor_type;location;lat;lon;timestamp;temperature;humidity
62575;DHT22;53112;45.602;11.904;2022-12-18T00:01:57;7.80;60.60
62575;DHT22;53112;45.602;11.904;2022-12-18T00:04:25;7.70;60.80
62575;DHT22;53112;45.602;11.904;2022-12-18T00:06:52;7.70;60.80
62575;DHT22;53112;45.602;11.904;2022-12-18T00:09:18;7.70;60.70
62575;DHT22;53112;45.602;11.904;2022-12-18T00:11:45;7.70;60.60
62575;DHT22;53112;45.602;11.904;2022-12-18T00:14:12;7.80;60.80
62575;DHT22;53112;45.602;11.904;2022-12-18T00:16:39;7.80;60.50
62575;DHT22;53112;45.602;11.904;2022-12-18T00:19:06;7.70;60.40
62575;DHT22;53112;45.602;11.904;2022-12-18T00:21:33;7.70;60.60
62575;DHT22;53112;45.602;11.904;2022-12-18T00:23:59;7.70;60.80
62575;DHT22;53112;45.602;11.904;2022-12-18T00:26:31;7.60;60.80
62575;DHT22;53112;45.602;11.904;2022-12-18T00:29:03;7.60;60.80
62575;DHT22;53112;45.602;11.904;2022-12-18T00:31:30;7.60;61.00
62575;DHT22;53112;45.602;11.904;2022-12-18T00:33:57;7.60;60.90
62575;DHT22;53112;45.602;11.904;2022-12-18T00:36:26;7.60;60.70
62575;DHT22;53112;45.602;11.904;2022-12-18T00:38:57;7.50;61.00
62575;DHT22;53112;45.602;11.904;2022-12-18T00:41:24;7.60;60.60
62575;DHT22;53112;45.602;11.904;2022-12-18T00:44:11;7.50;60.70
62575;DHT22;53112;45.602;11.904;2022-12-18T00:46:38;7.40;60.80
62575;DHT22;53112;45.602;11.904;2022-12-18T00:49:04;7.50;60.60
62575;DHT22;53112;45.602;11.904;2022-12-18T00:51:30;7.40;60.70
62575;DHT22;53112;45.602;11.904;2022-12-18T00:53:56;7.30;60.80
62575;DHT22;53112;45.602;11.904;2022-12-18T00:56:22;7.20;61.00
62575;DHT22;53112;45.602;11.904;2022-12-18T00:58:48;7.20;61.30
62575;DHT22;53112;45.602;11.904;2022-12-18T01:01:15;7.10;61.40
62575;DHT22;53112;45.602;11.904;2022-12-18T01:03:40;7.10;61.40
62575;DHT22;53112;45.602;11.904;2022-12-18T01:06:08;7.00;61.40
62575;DHT22;53112;45.602;11.904;2022-12-18T01:08:35;7.00;61.50
62575;DHT22;53112;45.602;11.904;2022-12-18T01:11:07;7.10;61.40
62575;DHT22;53112;45.602;11.904;2022-12-18T01:13:33;7.10;61.30
62575;DHT22;53112;45.602;11.904;2022-12-18T01:15:58;7.10;60.70
62575;DHT22;53112;45.602;11.904;2022-12-18T01:18:24;7.10;60.70
62575;DHT22;53112;45.602;11.904;2022-12-18T01:20:50;7.10;60.60
62575;DHT22;53112;45.602;11.904;2022-12-18T01:23:16;7.10;60.50
62575;DHT22;53112;45.602;11.904;2022-12-18T01:25:41;6.90;60.50
62575;DHT22;53112;45.602;11.904;2022-12-18T01:28:07;6.90;60.90
62575;DHT22;53112;45.602;11.904;2022-12-18T01:30:33;6.80;61.00
62575;DHT22;53112;45.602;11.904;2022-12-18T01:32:59;6.80;61.40
62575;DHT22;53112;45.602;11.904;2022-12-18T01:35:25;6.80;61.10
62575;DHT22;53112;45.602;11.904;2022-12-18T01:37:55;6.90;61.10
62575;DHT22;53112;45.602;11.904;2022-12-18T01:40:21;6.70;60.90
62575;DHT22;53112;45.602;11.904;2022-12-18T01:42:53;6.70;61.30
62575;DHT22;53112;45.602;11.904;2022-12-18T01:47:57;6.60;61.30
62575;DHT22;53112;45.602;11.904;2022-12-18T01:50:36;6.70;61.30
62575;DHT22;53112;45.602;11.904;2022-12-18T01:55:45;6.60;61.50
62575;DHT22;53112;45.602;11.904;2022-12-18T01:58:12;6.50;61.80
62575;DHT22;53112;45.602;11.904;2022-12-18T02:00:38;6.50;61.60
62575;DHT22;53112;45.602;11.904;2022-12-18T02:03:04;6.50;61.70
62575;DHT22;53112;45.602;11.904;2022-12-18T02:05:59;6.40;61.90
62575;DHT22;53112;45.602;11.904;2022-12-18T02:08:37;6.40;62.10
62575;DHT22;53112;45.602;11.904;2022-12-18T02:17:01;6.40;61.80
62575;DHT22;53112;45.602;11.904;2022-12-18T02:28:16;6.20;62.20
62575;DHT22;53112;45.602;11.904;2022-12-18T02:30:48;6.20;61.90
62575;DHT22;53112;45.602;11.904;2022-12-18T02:33:15;6.10;62.20
62575;DHT22;53112;45.602;11.904;2022-12-18T02:35:42;6.00;62.70
62575;DHT22;53112;45.602;11.904;2022-12-18T02:38:09;5.90;63.10
62575;DHT22;53112;45.602;11.904;2022-12-18T02:40:37;5.90;63.30
62575;DHT22;53112;45.602;11.904;2022-12-18T02:43:12;6.10;62.80
62575;DHT22;53112;45.602;11.904;2022-12-18T02:45:57;6.10;62.90
62575;DHT22;53112;45.602;11.904;2022-12-18T02:48:31;6.10;62.70
62575;DHT22;53112;45.602;11.904;2022-12-18T02:51:03;6.10;62.50
62575;DHT22;53112;45.602;11.904;2022-12-18T02:53:45;6.10;62.30
62575;DHT22;53112;45.602;11.904;2022-12-18T02:56:21;6.10;62.30
62575;DHT22;53112;45.602;11.904;2022-12-18T02:59:02;6.20;62.10
62575;DHT22;53112;45.602;11.904;2022-12-18T03:01:43;6.20;61.90
62575;DHT22;53112;45.602;11.904;2022-12-18T03:07:01;6.20;61.80
62575;DHT22;53112;45.602;11.904;2022-12-18T03:09:34;6.20;61.80
62575;DHT22;53112;45.602;11.904;2022-12-18T03:14:59;6.20;61.70
62575;DHT22;53112;45.602;11.904;2022-12-18T03:17:29;6.30;61.60
62575;DHT22;53112;45.602;11.904;2022-12-18T03:19:58;6.20;61.50
62575;DHT22;53112;45.602;11.904;2022-12-18T03:22:26;6.20;61.50
62575;DHT22;53112;45.602;11.904;2022-12-18T03:24:56;6.20;61.70
62575;DHT22;53112;45.602;11.904;2022-12-18T03:27:23;6.20;61.80
62575;DHT22;53112;45.602;11.904;2022-12-18T03:30:04;6.10;61.90
62575;DHT22;53112;45.602;11.904;2022-12-18T03:35:07;6.10;61.90
62575;DHT22;53112;45.602;11.904;2022-12-18T03:37:34;6.10;61.80
62575;DHT22;53112;45.602;11.904;2022-12-18T03:40:00;6.00;61.60
62575;DHT22;53112;45.602;11.904;2022-12-18T03:42:30;6.00;61.90
62575;DHT22;53112;45.602;11.904;2022-12-18T03:47:41;5.90;62.10
62575;DHT22;53112;45.602;11.904;2022-12-18T03:50:24;5.80;62.00
62575;DHT22;53112;45.602;11.904;2022-12-18T03:55:31;5.80;62.40
62575;DHT22;53112;45.602;11.904;2022-12-18T03:58:00;5.80;62.30
62575;DHT22;53112;45.602;11.904;2022-12-18T04:00:28;5.90;62.20
62575;DHT22;53112;45.602;11.904;2022-12-18T04:02:56;5.80;62.00
62575;DHT22;53112;45.602;11.904;2022-12-18T04:05:24;5.80;62.10
62575;DHT22;53112;45.602;11.904;2022-12-18T04:07:51;5.80;62.20
62575;DHT22;53112;45.602;11.904;2022-12-18T04:10:19;5.80;62.20
62575;DHT22;53112;45.602;11.904;2022-12-18T04:12:45;5.70;62.10
62575;DHT22;53112;45.602;11.904;2022-12-18T04:15:11;5.80;62.00
62575;DHT22;53112;45.602;11.904;2022-12-18T04:17:38;5.80;62.00
62575;DHT22;53112;45.602;11.904;2022-12-18T04:20:09;5.70;62.00
62575;DHT22;53112;45.602;11.904;2022-12-18T04:22:35;5.60;62.40
62575;DHT22;53112;45.602;11.904;2022-12-18T04:25:01;5.60;62.40
62575;DHT22;53112;45.602;11.904;2022-12-18T04:27:26;5.50;62.50
62575;DHT22;53112;45.602;11.904;2022-12-18T04:29:52;5.50;62.60
62575;DHT22;53112;45.602;11.904;2022-12-18T04:32:18;5.50;62.70
62575;DHT22;53112;45.602;11.904;2022-12-18T04:34:44;5.30;63.00
62575;DHT22;53112;45.602;11.904;2022-12-18T04:37:10;5.20;63.40
62575;DHT22;53112;45.602;11.904;2022-12-18T04:39:36;5.30;63.30
62575;DHT22;53112;45.602;11.904;2022-12-18T04:42:02;5.40;63.10
62575;DHT22;53112;45.602;11.904;2022-12-18T04:44:28;5.40;63.10
62575;DHT22;53112;45.602;11.904;2022-12-18T04:46:54;5.40;63.00
62575;DHT22;53112;45.602;11.904;2022-12-18T04:49:24;5.30;63.00
62575;DHT22;53112;45.602;11.904;2022-12-18T04:51:50;5.40;63.00
62575;DHT22;53112;45.602;11.904;2022-12-18T04:54:17;5.40;62.90
62575;DHT22;53112;45.602;11.904;2022-12-18T04:56:46;5.40;62.90
62575;DHT22;53112;45.602;11.904;2022-12-18T04:59:12;5.30;63.10
62575;DHT22;53112;45.602;11.904;2022-12-18T05:01:38;5.40;62.90
62575;DHT22;53112;45.602;11.904;2022-12-18T05:04:04;5.50;62.50
62575;DHT22;53112;45.602;11.904;2022-12-18T05:06:31;5.50;62.40
62575;DHT22;53112;45.602;11.904;2022-12-18T05:08:57;5.60;62.20
62575;DHT22;53112;45.602;11.904;2022-12-18T05:11:22;5.60;62.00
62575;DHT22;53112;45.602;11.904;2022-12-18T05:13:48;5.60;62.00
62575;DHT22;53112;45.602;11.904;2022-12-18T05:16:14;5.60;61.80
62575;DHT22;53112;45.602;11.904;2022-12-18T05:18:40;5.60;62.10
62575;DHT22;53112;45.602;11.904;2022-12-18T05:21:07;5.60;61.90
62575;DHT22;53112;45.602;11.904;2022-12-18T05:23:36;5.60;61.90
62575;DHT22;53112;45.602;11.904;2022-12-18T05:26:04;5.60;62.00
62575;DHT22;53112;45.602;11.904;2022-12-18T05:28:32;5.60;62.00
62575;DHT22;53112;45.602;11.904;2022-12-18T05:30:59;5.60;62.10
62575;DHT22;53112;45.602;11.904;2022-12-18T05:33:29;5.70;62.00
62575;DHT22;53112;45.602;11.904;2022-12-18T05:35:57;5.70;62.20
62575;DHT22;53112;45.602;11.904;2022-12-18T05:38:25;5.70;62.00
62575;DHT22;53112;45.602;11.904;2022-12-18T05:40:52;5.80;61.90
62575;DHT22;53112;45.602;11.904;2022-12-18T05:43:19;5.80;62.10
62575;DHT22;53112;45.602;11.904;2022-12-18T05:45:47;5.80;61.80
62575;DHT22;53112;45.602;11.904;2022-12-18T05:48:13;5.70;61.80
62575;DHT22;53112;45.602;11.904;2022-12-18T05:50:41;5.60;62.00
62575;DHT22;53112;45.602;11.904;2022-12-18T05:53:08;5.70;62.00
62575;DHT22;53112;45.602;11.904;2022-12-18T05:55:38;5.70;62.10
62575;DHT22;53112;45.602;11.904;2022-12-18T05:58:06;5.70;62.10
62575;DHT22;53112;45.602;11.904;2022-12-18T06:00:33;5.60;62.30
62575;DHT22;53112;45.602;11.904;2022-12-18T06:03:00;5.50;62.70
62575;DHT22;53112;45.602;11.904;2022-12-18T06:05:26;5.50;63.00
62575;DHT22;53112;45.602;11.904;2022-12-18T06:07:52;5.50;62.70
62575;DHT22;53112;45.602;11.904;2022-12-18T06:10:18;5.50;62.80
62575;DHT22;53112;45.602;11.904;2022-12-18T06:12:44;5.50;62.70
62575;DHT22;53112;45.602;11.904;2022-12-18T06:15:10;5.50;62.60
62575;DHT22;53112;45.602;11.904;2022-12-18T06:17:36;5.50;62.70
62575;DHT22;53112;45.602;11.904;2022-12-18T06:20:03;5.50;62.60
62575;DHT22;53112;45.602;11.904;2022-12-18T06:22:31;5.50;62.70
62575;DHT22;53112;45.602;11.904;2022-12-18T06:24:57;5.50;62.80
62575;DHT22;53112;45.602;11.904;2022-12-18T06:27:25;5.40;62.90
62575;DHT22;53112;45.602;11.904;2022-12-18T06:29:50;5.40;63.10
62575;DHT22;53112;45.602;11.904;2022-12-18T06:32:16;5.40;63.00
62575;DHT22;53112;45.602;11.904;2022-12-18T06:34:42;5.40;63.20
62575;DHT22;53112;45.602;11.904;2022-12-18T06:37:08;5.50;63.00
62575;DHT22;53112;45.602;11.904;2022-12-18T06:39:34;5.40;63.10
62575;DHT22;53112;45.602;11.904;2022-12-18T06:41:59;5.50;63.00
62575;DHT22;53112;45.602;11.904;2022-12-18T06:44:25;5.50;62.80
62575;DHT22;53112;45.602;11.904;2022-12-18T06:46:51;5.60;62.70
62575;DHT22;53112;45.602;11.904;2022-12-18T06:49:17;5.50;62.70
62575;DHT22;53112;45.602;11.904;2022-12-18T06:51:42;5.50;62.70
62575;DHT22;53112;45.602;11.904;2022-12-18T06:54:08;5.50;63.00
62575;DHT22;53112;45.602;11.904;2022-12-18T06:56:34;5.40;63.10
62575;DHT22;53112;45.602;11.904;2022-12-18T06:59:00;5.40;63.50
62575;DHT22;53112;45.602;11.904;2022-12-18T07:01:26;5.50;63.20
62575;DHT22;53112;45.602;11.904;2022-12-18T07:03:53;5.40;63.30
62575;DHT22;53112;45.602;11.904;2022-12-18T07:06:22;5.40;63.50
62575;DHT22;53112;45.602;11.904;2022-12-18T07:08:49;5.50;63.30
62575;DHT22;53112;45.602;11.904;2022-12-18T07:11:17;5.50;63.10
62575;DHT22;53112;45.602;11.904;2022-12-18T07:13:43;5.60;62.90
62575;DHT22;53112;45.602;11.904;2022-12-18T07:16:13;5.70;62.60
62575;DHT22;53112;45.602;11.904;2022-12-18T07:18:39;5.70;62.30
62575;DHT22;53112;45.602;11.904;2022-12-18T07:21:10;5.80;62.10
62575;DHT22;53112;45.602;11.904;2022-12-18T07:23:36;5.80;62.20
62575;DHT22;53112;45.602;11.904;2022-12-18T07:26:04;5.90;62.00
62575;DHT22;53112;45.602;11.904;2022-12-18T07:28:32;6.00;61.80
62575;DHT22;53112;45.602;11.904;2022-12-18T07:30:58;6.10;61.30
62575;DHT22;53112;45.602;11.904;2022-12-18T07:33:25;6.10;61.50
62575;DHT22;53112;45.602;11.904;2022-12-18T07:35:51;6.10;61.30
62575;DHT22;53112;45.602;11.904;2022-12-18T07:38:16;6.20;61.50
62575;DHT22;53112;45.602;11.904;2022-12-18T07:40:42;6.20;61.10
62575;DHT22;53112;45.602;11.904;2022-12-18T07:43:08;6.30;61.00
62575;DHT22;53112;45.602;11.904;2022-12-18T07:45:34;6.50;60.70
62575;DHT22;53112;45.602;11.904;2022-12-18T07:48:00;6.60;60.50
62575;DHT22;53112;45.602;11.904;2022-12-18T07:50:25;6.70;60.30
62575;DHT22;53112;45.602;11.904;2022-12-18T07:52:51;6.80;60.10
62575;DHT22;53112;45.602;11.904;2022-12-18T07:55:17;6.80;60.10
62575;DHT22;53112;45.602;11.904;2022-12-18T07:57:43;6.90;60.00
62575;DHT22;53112;45.602;11.904;2022-12-18T08:00:09;6.90;59.70
62575;DHT22;53112;45.602;11.904;2022-12-18T08:02:35;7.00;59.40
62575;DHT22;53112;45.602;11.904;2022-12-18T08:05:01;7.10;59.40
62575;DHT22;53112;45.602;11.904;2022-12-18T08:07:26;7.30;58.90
62575;DHT22;53112;45.602;11.904;2022-12-18T08:09:52;7.40;58.30
62575;DHT22;53112;45.602;11.904;2022-12-18T08:12:19;7.50;58.20
62575;DHT22;53112;45.602;11.904;2022-12-18T08:14:45;7.60;58.20
62575;DHT22;53112;45.602;11.904;2022-12-18T08:17:11;7.60;57.60
62575;DHT22;53112;45.602;11.904;2022-12-18T08:19:37;7.70;57.60
62575;DHT22;53112;45.602;11.904;2022-12-18T08:22:02;7.90;57.20
62575;DHT22;53112;45.602;11.904;2022-12-18T08:24:28;8.10;57.00
62575;DHT22;53112;45.602;11.904;2022-12-18T08:26:54;8.30;56.10
62575;DHT22;53112;45.602;11.904;2022-12-18T08:29:20;8.60;55.90
62575;DHT22;53112;45.602;11.904;2022-12-18T08:31:46;8.80;55.20
62575;DHT22;53112;45.602;11.904;2022-12-18T08:34:12;9.00;53.30
62575;DHT22;53112;45.602;11.904;2022-12-18T08:36:37;9.40;52.80
62575;DHT22;53112;45.602;11.904;2022-12-18T08:39:03;9.70;52.30
62575;DHT22;53112;45.602;11.904;2022-12-18T08:41:29;9.90;50.80
62575;DHT22;53112;45.602;11.904;2022-12-18T08:43:55;10.30;51.30
62575;DHT22;53112;45.602;11.904;2022-12-18T08:46:41;10.60;50.00
62575;DHT22;53112;45.602;11.904;2022-12-18T08:49:08;10.80;49.00
62575;DHT22;53112;45.602;11.904;2022-12-18T08:51:34;10.90;49.30
62575;DHT22;53112;45.602;11.904;2022-12-18T08:54:01;11.10;49.10
62575;DHT22;53112;45.602;11.904;2022-12-18T08:56:26;11.00;48.10
62575;DHT22;53112;45.602;11.904;2022-12-18T08:58:53;11.10;49.20
62575;DHT22;53112;45.602;11.904;2022-12-18T09:01:20;11.40;47.80
62575;DHT22;53112;45.602;11.904;2022-12-18T09:03:48;11.70;48.40
62575;DHT22;53112;45.602;11.904;2022-12-18T09:06:18;12.00;46.80
62575;DHT22;53112;45.602;11.904;2022-12-18T09:08:44;12.10;46.50
62575;DHT22;53112;45.602;11.904;2022-12-18T09:11:25;12.20;46.20
62575;DHT22;53112;45.602;11.904;2022-12-18T09:13:52;11.90;44.70
62575;DHT22;53112;45.602;11.904;2022-12-18T09:16:20;11.60;47.70
62575;DHT22;53112;45.602;11.904;2022-12-18T09:18:47;11.30;47.70
62575;DHT22;53112;45.602;11.904;2022-12-18T09:21:18;11.60;49.40
62575;DHT22;53112;45.602;11.904;2022-12-18T09:23:49;12.10;48.00
62575;DHT22;53112;45.602;11.904;2022-12-18T09:26:15;12.40;46.80
62575;DHT22;53112;45.602;11.904;2022-12-18T09:28:42;12.70;45.30
62575;DHT22;53112;45.602;11.904;2022-12-18T09:31:10;12.70;46.20
62575;DHT22;53112;45.602;11.904;2022-12-18T09:33:36;13.00;46.20
62575;DHT22;53112;45.602;11.904;2022-12-18T09:36:04;12.70;45.00
62575;DHT22;53112;45.602;11.904;2022-12-18T09:38:31;12.80;45.10
62575;DHT22;53112;45.602;11.904;2022-12-18T09:41:04;12.90;43.30
62575;DHT22;53112;45.602;11.904;2022-12-18T09:43:53;12.80;43.60
62575;DHT22;53112;45.602;11.904;2022-12-18T09:46:26;13.10;42.50
62575;DHT22;53112;45.602;11.904;2022-12-18T09:48:55;12.60;42.90
62575;DHT22;53112;45.602;11.904;2022-12-18T09:51:44;12.90;44.80
62575;DHT22;53112;45.602;11.904;2022-12-18T09:54:39;12.70;43.40
62575;DHT22;53112;45.602;11.904;2022-12-18T09:57:21;12.60;44.30
62575;DHT22;53112;45.602;11.904;2022-12-18T10:00:04;12.60;42.80
62575;DHT22;53112;45.602;11.904;2022-12-18T10:02:32;12.80;42.30
62575;DHT22;53112;45.602;11.904;2022-12-18T10:05:15;12.70;43.70
62575;DHT22;53112;45.602;11.904;2022-12-18T10:10:18;12.90;42.30
62575;DHT22;53112;45.602;11.904;2022-12-18T10:21:39;13.60;41.30
62575;DHT22;53112;45.602;11.904;2022-12-18T10:26:46;14.00;40.60
62575;DHT22;53112;45.602;11.904;2022-12-18T10:29:14;13.90;40.70
62575;DHT22;53112;45.602;11.904;2022-12-18T10:31:41;13.60;41.50
62575;DHT22;53112;45.602;11.904;2022-12-18T10:34:11;13.40;41.50
62575;DHT22;53112;45.602;11.904;2022-12-18T10:36:44;12.90;41.60
62575;DHT22;53112;45.602;11.904;2022-12-18T10:39:21;12.70;41.50
62575;DHT22;53112;45.602;11.904;2022-12-18T10:41:48;12.30;41.80
62575;DHT22;53112;45.602;11.904;2022-12-18T10:44:23;12.60;43.30
62575;DHT22;53112;45.602;11.904;2022-12-18T10:47:04;12.90;43.50
62575;DHT22;53112;45.602;11.904;2022-12-18T10:49:32;13.00;43.00
62575;DHT22;53112;45.602;11.904;2022-12-18T10:52:20;13.40;42.40
62575;DHT22;53112;45.602;11.904;2022-12-18T10:54:57;13.80;40.80
62575;DHT22;53112;45.602;11.904;2022-12-18T11:00:03;13.80;40.30
62575;DHT22;53112;45.602;11.904;2022-12-18T11:02:39;13.40;40.00
62575;DHT22;53112;45.602;11.904;2022-12-18T11:07:50;13.20;42.10
62575;DHT22;53112;45.602;11.904;2022-12-18T11:10:18;13.50;41.60
62575;DHT22;53112;45.602;11.904;2022-12-18T11:12:44;14.20;40.60
62575;DHT22;53112;45.602;11.904;2022-12-18T11:15:21;14.40;40.80
62575;DHT22;53112;45.602;11.904;2022-12-18T11:17:50;14.40;41.10
62575;DHT22;53112;45.602;11.904;2022-12-18T11:23:03;14.60;41.00
62575;DHT22;53112;45.602;11.904;2022-12-18T11:25:30;14.40;38.70
62575;DHT22;53112;45.602;11.904;2022-12-18T11:28:06;14.70;40.70
62575;DHT22;53112;45.602;11.904;2022-12-18T11:30:48;15.40;38.20
62575;DHT22;53112;45.602;11.904;2022-12-18T11:33:20;16.10;37.60
62575;DHT22;53112;45.602;11.904;2022-12-18T11:35:53;16.90;34.30
62575;DHT22;53112;45.602;11.904;2022-12-18T11:38:26;16.80;35.20
62575;DHT22;53112;45.602;11.904;2022-12-18T11:43:40;17.10;33.50
62575;DHT22;53112;45.602;11.904;2022-12-18T11:46:13;17.90;34.00
62575;DHT22;53112;45.602;11.904;2022-12-18T11:49:06;18.40;32.30
62575;DHT22;53112;45.602;11.904;2022-12-18T11:51:41;19.20;32.00
62575;DHT22;53112;45.602;11.904;2022-12-18T11:54:14;19.50;31.30
62575;DHT22;53112;45.602;11.904;2022-12-18T11:56:51;19.30;31.70
62575;DHT22;53112;45.602;11.904;2022-12-18T12:07:33;19.60;28.70
62575;DHT22;53112;45.602;11.904;2022-12-18T12:10:15;19.60;29.10
62575;DHT22;53112;45.602;11.904;2022-12-18T12:21:24;21.70;27.50
62575;DHT22;53112;45.602;11.904;2022-12-18T12:24:22;22.00;26.50
62575;DHT22;53112;45.602;11.904;2022-12-18T12:32:46;21.40;28.60
62575;DHT22;53112;45.602;11.904;2022-12-18T12:38:22;21.10;29.90
62575;DHT22;53112;45.602;11.904;2022-12-18T12:41:00;20.90;28.90
62575;DHT22;53112;45.602;11.904;2022-12-18T12:46:07;20.10;29.60
62575;DHT22;53112;45.602;11.904;2022-12-18T12:48:47;19.80;29.90
62575;DHT22;53112;45.602;11.904;2022-12-18T12:51:29;19.70;29.40
62575;DHT22;53112;45.602;11.904;2022-12-18T12:53:58;20.00;30.10
62575;DHT22;53112;45.602;11.904;2022-12-18T12:56:32;20.40;30.30
62575;DHT22;53112;45.602;11.904;2022-12-18T13:02:24;22.60;27.10
62575;DHT22;53112;45.602;11.904;2022-12-18T13:05:31;24.40;24.30
62575;DHT22;53112;45.602;11.904;2022-12-18T13:08:11;26.00;21.10
62575;DHT22;53112;45.602;11.904;2022-12-18T13:13:13;27.60;20.90
62575;DHT22;53112;45.602;11.904;2022-12-18T13:16:03;28.20;21.40
62575;DHT22;53112;45.602;11.904;2022-12-18T13:18:29;29.30;19.80
62575;DHT22;53112;45.602;11.904;2022-12-18T13:23:26;24.40;24.40
62575;DHT22;53112;45.602;11.904;2022-12-18T13:26:28;24.60;23.90
62575;DHT22;53112;45.602;11.904;2022-12-18T13:33:46;28.40;20.70
62575;DHT22;53112;45.602;11.904;2022-12-18T13:41:46;29.20;18.70
62575;DHT22;53112;45.602;11.904;2022-12-18T13:44:34;28.60;20.00
62575;DHT22;53112;45.602;11.904;2022-12-18T13:47:03;28.80;18.80
62575;DHT22;53112;45.602;11.904;2022-12-18T13:49:41;28.60;20.00
62575;DHT22;53112;45.602;11.904;2022-12-18T13:52:23;28.80;20.40
62575;DHT22;53112;45.602;11.904;2022-12-18T13:54:56;28.70;19.50
62575;DHT22;53112;45.602;11.904;2022-12-18T13:57:30;28.10;20.30
62575;DHT22;53112;45.602;11.904;2022-12-18T13:59:58;28.40;20.60
62575;DHT22;53112;45.602;11.904;2022-12-18T14:02:27;28.40;19.80
62575;DHT22;53112;45.602;11.904;2022-12-18T14:04:54;28.80;20.30
62575;DHT22;53112;45.602;11.904;2022-12-18T14:07:23;28.80;20.10
62575;DHT22;53112;45.602;11.904;2022-12-18T14:09:59;28.80;19.70
62575;DHT22;53112;45.602;11.904;2022-12-18T14:12:27;28.60;20.30
62575;DHT22;53112;45.602;11.904;2022-12-18T14:20:35;28.00;20.60
62575;DHT22;53112;45.602;11.904;2022-12-18T14:23:01;27.40;20.80
62575;DHT22;53112;45.602;11.904;2022-12-18T14:25:28;26.70;21.20
62575;DHT22;53112;45.602;11.904;2022-12-18T14:28:13;26.90;22.10
62575;DHT22;53112;45.602;11.904;2022-12-18T14:30:42;27.00;21.00
62575;DHT22;53112;45.602;11.904;2022-12-18T14:35:37;26.20;22.60
62575;DHT22;53112;45.602;11.904;2022-12-18T14:38:22;26.00;22.80
62575;DHT22;53112;45.602;11.904;2022-12-18T14:41:13;25.30;22.30
62575;DHT22;53112;45.602;11.904;2022-12-18T14:43:40;24.20;24.00
62575;DHT22;53112;45.602;11.904;2022-12-18T14:48:54;21.80;26.70
62575;DHT22;53112;45.602;11.904;2022-12-18T14:51:26;20.70;28.80
62575;DHT22;53112;45.602;11.904;2022-12-18T14:54:05;19.60;30.10
62575;DHT22;53112;45.602;11.904;2022-12-18T14:56:37;19.10;31.10
62575;DHT22;53112;45.602;11.904;2022-12-18T14:59:22;18.30;32.10
62575;DHT22;53112;45.602;11.904;2022-12-18T15:04:37;16.90;34.20
62575;DHT22;53112;45.602;11.904;2022-12-18T15:07:09;16.50;35.10
62575;DHT22;53112;45.602;11.904;2022-12-18T15:09:35;16.00;36.30
62575;DHT22;53112;45.602;11.904;2022-12-18T15:12:02;15.50;36.80
62575;DHT22;53112;45.602;11.904;2022-12-18T15:14:34;15.10;37.50
62575;DHT22;53112;45.602;11.904;2022-12-18T15:17:03;14.80;38.20
62575;DHT22;53112;45.602;11.904;2022-12-18T15:19:40;14.40;39.20
62575;DHT22;53112;45.602;11.904;2022-12-18T15:22:22;14.20;39.90
62575;DHT22;53112;45.602;11.904;2022-12-18T15:24:49;13.80;40.70
62575;DHT22;53112;45.602;11.904;2022-12-18T15:27:30;13.50;41.60
62575;DHT22;53112;45.602;11.904;2022-12-18T15:32:38;13.20;42.10
62575;DHT22;53112;45.602;11.904;2022-12-18T15:37:37;12.50;43.50
62575;DHT22;53112;45.602;11.904;2022-12-18T15:40:03;12.40;44.00
62575;DHT22;53112;45.602;11.904;2022-12-18T15:42:29;12.20;44.10
62575;DHT22;53112;45.602;11.904;2022-12-18T15:45:14;12.10;44.40
62575;DHT22;53112;45.602;11.904;2022-12-18T15:47:41;11.70;44.80
62575;DHT22;53112;45.602;11.904;2022-12-18T15:50:10;11.30;46.30
62575;DHT22;53112;45.602;11.904;2022-12-18T15:52:44;11.30;46.00
62575;DHT22;53112;45.602;11.904;2022-12-18T15:55:19;11.20;46.80
62575;DHT22;53112;45.602;11.904;2022-12-18T15:58:10;11.10;47.20
62575;DHT22;53112;45.602;11.904;2022-12-18T16:00:39;11.00;47.20
62575;DHT22;53112;45.602;11.904;2022-12-18T16:03:05;10.90;47.40
62575;DHT22;53112;45.602;11.904;2022-12-18T16:05:32;10.90;47.40
62575;DHT22;53112;45.602;11.904;2022-12-18T16:07:58;10.60;47.90
62575;DHT22;53112;45.602;11.904;2022-12-18T16:10:25;10.40;49.10
62575;DHT22;53112;45.602;11.904;2022-12-18T16:12:52;10.40;48.60
62575;DHT22;53112;45.602;11.904;2022-12-18T16:15:18;10.30;48.70
62575;DHT22;53112;45.602;11.904;2022-12-18T16:17:45;10.10;49.20
62575;DHT22;53112;45.602;11.904;2022-12-18T16:20:15;10.10;49.10
62575;DHT22;53112;45.602;11.904;2022-12-18T16:22:42;9.70;50.10
62575;DHT22;53112;45.602;11.904;2022-12-18T16:25:22;9.60;50.70
62575;DHT22;53112;45.602;11.904;2022-12-18T16:27:48;9.10;54.00
62575;DHT22;53112;45.602;11.904;2022-12-18T16:30:17;8.90;54.20
62575;DHT22;53112;45.602;11.904;2022-12-18T16:32:43;8.90;55.10
62575;DHT22;53112;45.602;11.904;2022-12-18T16:35:13;8.60;56.50
62575;DHT22;53112;45.602;11.904;2022-12-18T16:37:40;8.40;57.40
62575;DHT22;53112;45.602;11.904;2022-12-18T16:40:08;8.50;56.30
62575;DHT22;53112;45.602;11.904;2022-12-18T16:42:36;8.50;55.20
62575;DHT22;53112;45.602;11.904;2022-12-18T16:45:03;8.70;54.80
62575;DHT22;53112;45.602;11.904;2022-12-18T16:47:29;8.50;55.30
62575;DHT22;53112;45.602;11.904;2022-12-18T16:49:55;8.40;55.50
62575;DHT22;53112;45.602;11.904;2022-12-18T16:52:21;8.20;57.50
62575;DHT22;53112;45.602;11.904;2022-12-18T16:54:47;8.20;56.80
62575;DHT22;53112;45.602;11.904;2022-12-18T16:57:17;8.10;57.10
62575;DHT22;53112;45.602;11.904;2022-12-18T16:59:43;8.00;56.40
62575;DHT22;53112;45.602;11.904;2022-12-18T17:02:15;7.90;57.10
62575;DHT22;53112;45.602;11.904;2022-12-18T17:04:42;7.80;56.80
62575;DHT22;53112;45.602;11.904;2022-12-18T17:07:09;7.90;55.90
62575;DHT22;53112;45.602;11.904;2022-12-18T17:09:35;7.90;55.70
62575;DHT22;53112;45.602;11.904;2022-12-18T17:12:01;7.70;55.90
62575;DHT22;53112;45.602;11.904;2022-12-18T17:14:27;7.80;55.00
62575;DHT22;53112;45.602;11.904;2022-12-18T17:16:54;7.80;55.20
62575;DHT22;53112;45.602;11.904;2022-12-18T17:19:20;7.70;56.50
62575;DHT22;53112;45.602;11.904;2022-12-18T17:21:48;7.70;55.90
62575;DHT22;53112;45.602;11.904;2022-12-18T17:24:14;7.70;55.50
62575;DHT22;53112;45.602;11.904;2022-12-18T17:26:41;7.60;55.60
62575;DHT22;53112;45.602;11.904;2022-12-18T17:29:08;7.50;55.50
62575;DHT22;53112;45.602;11.904;2022-12-18T17:31:34;7.50;55.20
62575;DHT22;53112;45.602;11.904;2022-12-18T17:34:01;7.40;55.20
62575;DHT22;53112;45.602;11.904;2022-12-18T17:36:28;7.10;57.80
62575;DHT22;53112;45.602;11.904;2022-12-18T17:38:57;7.00;56.50
62575;DHT22;53112;45.602;11.904;2022-12-18T17:41:25;7.00;57.10
62575;DHT22;53112;45.602;11.904;2022-12-18T17:43:59;6.80;57.20
62575;DHT22;53112;45.602;11.904;2022-12-18T17:46:26;6.80;58.10